X  Schlie├čen METAR Luftfahrt Wetterdaten     EHGG Eelde Airport
Temperatur
14°C Temperatur
13°C Taupunkt
94% Feuchtigkeit



Wind
5 MPS
8 KM/S
2 M/S
4 KTS



190°
S
Aktuelle Wetterlage

Klar Klar
Luftdruck 1021.92 (hPa) - 30.18 (inHg)
Sichtweite 6.2 (Meile) - 10 (Km)
Flughafen
Flughafen Code EHGG

Position : Eelde Airport
Entfernung: 40 (mi)

Metar:
EHGG 010055Z AUTO 19004KT 160V220 9999 NSC 14/13 Q1022 NOSIG

Zeit: 01-10-2023 02:55 CEST